createdAt,value
2023-02-06T00:00:56.978Z,3.60
2023-02-06T00:03:24.750Z,3.30
2023-02-06T00:05:59.420Z,3.30
2023-02-06T00:08:28.275Z,3.50
2023-02-06T00:10:56.310Z,3.60
2023-02-06T00:13:24.116Z,3.53
2023-02-06T00:15:52.134Z,3.93
2023-02-06T00:18:19.988Z,3.70
2023-02-06T00:20:47.866Z,3.77
2023-02-06T00:23:16.136Z,4.27
2023-02-06T00:25:44.173Z,3.93
2023-02-06T00:28:12.119Z,4.60
2023-02-06T00:30:40.094Z,4.43
2023-02-06T00:33:08.178Z,5.10
2023-02-06T00:35:36.229Z,5.20
2023-02-06T00:38:04.377Z,5.00
2023-02-06T00:40:32.283Z,5.57
2023-02-06T00:43:00.197Z,5.33
2023-02-06T00:45:27.991Z,5.80
2023-02-06T00:47:56.167Z,6.10
2023-02-06T00:50:24.016Z,5.70
2023-02-06T00:52:51.826Z,5.63
2023-02-06T00:55:19.638Z,5.37
2023-02-06T00:57:47.469Z,5.90
2023-02-06T01:00:15.766Z,5.43
2023-02-06T01:02:43.696Z,5.57
2023-02-06T01:05:11.769Z,5.73
2023-02-06T01:07:40.806Z,6.20
2023-02-06T01:10:09.192Z,5.77
2023-02-06T01:12:37.319Z,5.73
2023-02-06T01:15:07.011Z,6.20
2023-02-06T01:17:35.266Z,6.20
2023-02-06T01:20:03.101Z,5.27
2023-02-06T01:22:31.072Z,6.23
2023-02-06T01:24:58.944Z,6.43
2023-02-06T01:27:26.836Z,6.43
2023-02-06T01:29:54.728Z,5.33
2023-02-06T01:32:22.595Z,6.53
2023-02-06T01:34:50.635Z,5.60
2023-02-06T01:37:18.529Z,6.23
2023-02-06T01:39:46.575Z,5.73
2023-02-06T01:42:14.460Z,5.50
2023-02-06T01:44:43.136Z,5.80
2023-02-06T01:47:11.123Z,5.60
2023-02-06T01:49:57.264Z,5.37
2023-02-06T01:52:26.074Z,5.00
2023-02-06T01:54:57.116Z,5.50
2023-02-06T01:57:24.896Z,5.77
2023-02-06T01:59:54.803Z,5.20
2023-02-06T02:02:23.215Z,5.63
2023-02-06T02:04:51.062Z,5.60
2023-02-06T02:07:24.735Z,5.53
2023-02-06T02:09:53.253Z,5.10
2023-02-06T02:12:21.052Z,5.47
2023-02-06T02:14:49.636Z,5.17
2023-02-06T02:17:45.424Z,5.40
2023-02-06T02:20:39.478Z,4.83
2023-02-06T02:23:18.900Z,5.20
2023-02-06T02:26:23.168Z,5.20
2023-02-06T02:29:14.098Z,5.50
2023-02-06T02:31:57.175Z,5.57
2023-02-06T02:35:03.482Z,5.77
2023-02-06T02:37:34.091Z,5.47
2023-02-06T02:40:19.265Z,6.00
2023-02-06T02:43:05.456Z,5.90
2023-02-06T02:45:47.411Z,6.30
2023-02-06T02:48:32.436Z,5.67
2023-02-06T02:51:00.243Z,6.13
2023-02-06T02:53:28.499Z,6.10
2023-02-06T02:55:56.649Z,5.17
2023-02-06T02:58:26.053Z,5.50
2023-02-06T03:01:02.926Z,5.97
2023-02-06T03:03:31.635Z,5.77
2023-02-06T03:06:11.599Z,6.10
2023-02-06T03:09:15.257Z,5.10
2023-02-06T03:11:46.763Z,5.20
2023-02-06T03:14:29.749Z,5.00
2023-02-06T03:17:00.882Z,4.87
2023-02-06T03:19:34.511Z,4.63
2023-02-06T03:22:03.605Z,4.60
2023-02-06T03:24:34.355Z,5.03
2023-02-06T03:27:04.493Z,4.90
2023-02-06T03:29:33.429Z,4.67
2023-02-06T03:32:21.006Z,4.73
2023-02-06T03:35:02.619Z,4.40
2023-02-06T03:37:30.617Z,4.37
2023-02-06T03:39:59.423Z,4.10
2023-02-06T03:42:27.369Z,4.13
2023-02-06T03:45:15.403Z,4.37
2023-02-06T03:47:43.183Z,4.90
2023-02-06T03:50:11.088Z,4.73
2023-02-06T03:52:40.877Z,4.80
2023-02-06T03:55:11.510Z,4.57
2023-02-06T03:57:39.347Z,4.93
2023-02-06T04:00:07.574Z,4.97
2023-02-06T04:02:35.426Z,4.97
2023-02-06T04:05:03.147Z,4.77
2023-02-06T04:07:31.764Z,4.83
2023-02-06T04:09:59.636Z,4.73
2023-02-06T04:12:28.383Z,5.20
2023-02-06T04:14:57.044Z,5.13
2023-02-06T04:17:43.233Z,5.03
2023-02-06T04:20:13.041Z,5.53
2023-02-06T04:22:41.419Z,5.20
2023-02-06T04:25:09.484Z,5.70
2023-02-06T04:27:38.203Z,5.77
2023-02-06T04:30:06.574Z,6.10
2023-02-06T04:32:34.427Z,5.23
2023-02-06T04:35:02.294Z,5.57
2023-02-06T04:37:30.293Z,6.07
2023-02-06T04:39:58.145Z,6.03
2023-02-06T04:42:26.131Z,5.63
2023-02-06T04:44:54.003Z,5.53
2023-02-06T04:47:21.837Z,5.90
2023-02-06T04:49:49.699Z,6.33
2023-02-06T04:52:17.508Z,5.97
2023-02-06T04:54:45.276Z,6.13
2023-02-06T04:57:13.016Z,6.50
2023-02-06T04:59:45.367Z,6.50
2023-02-06T05:02:13.177Z,6.07
2023-02-06T05:04:41.076Z,6.60
2023-02-06T05:07:08.944Z,6.70
2023-02-06T05:09:36.837Z,6.50
2023-02-06T05:12:06.181Z,6.70
2023-02-06T05:14:34.193Z,6.73
2023-02-06T05:17:02.050Z,6.57
2023-02-06T05:19:29.943Z,7.17
2023-02-06T05:21:57.841Z,7.00
2023-02-06T05:24:25.830Z,7.97
2023-02-06T05:26:53.603Z,7.03
2023-02-06T05:29:21.360Z,7.53
2023-02-06T05:31:49.146Z,7.17
2023-02-06T05:34:16.940Z,7.03
2023-02-06T05:36:44.804Z,7.23
2023-02-06T05:39:15.123Z,7.33
2023-02-06T05:41:42.958Z,7.50
2023-02-06T05:44:12.179Z,7.20
2023-02-06T05:46:39.960Z,6.83
2023-02-06T05:49:07.827Z,7.60
2023-02-06T05:51:35.775Z,7.70
2023-02-06T05:54:03.567Z,7.53
2023-02-06T05:56:31.403Z,8.23
2023-02-06T05:58:59.314Z,8.07
2023-02-06T06:01:27.220Z,7.73
2023-02-06T06:03:55.029Z,7.87
2023-02-06T06:06:22.871Z,7.87
2023-02-06T06:08:50.783Z,7.90
2023-02-06T06:11:18.606Z,7.50
2023-02-06T06:13:46.363Z,7.67
2023-02-06T06:16:14.208Z,8.30
2023-02-06T06:18:42.065Z,7.70
2023-02-06T06:21:09.864Z,7.90
2023-02-06T06:23:37.817Z,7.37
2023-02-06T06:26:06.145Z,7.23
2023-02-06T06:28:36.168Z,7.37
2023-02-06T06:31:04.738Z,7.07
2023-02-06T06:33:32.614Z,8.10
2023-02-06T06:36:00.679Z,6.57
2023-02-06T06:38:28.574Z,7.13
2023-02-06T06:40:56.334Z,7.50
2023-02-06T06:43:24.211Z,6.87
2023-02-06T06:45:52.130Z,7.40
2023-02-06T06:48:20.053Z,7.07
2023-02-06T06:50:47.823Z,6.63
2023-02-06T06:53:15.706Z,7.17
2023-02-06T06:55:43.553Z,6.80
2023-02-06T06:58:11.439Z,7.47
2023-02-06T07:00:39.516Z,7.50
2023-02-06T07:03:07.792Z,7.30
2023-02-06T07:05:36.286Z,7.23
2023-02-06T07:08:04.482Z,7.17
2023-02-06T07:10:32.335Z,7.00
2023-02-06T07:13:00.165Z,6.87
2023-02-06T07:15:28.456Z,6.80
2023-02-06T07:17:56.253Z,6.20
2023-02-06T07:20:24.122Z,6.23
2023-02-06T07:22:52.045Z,5.67
2023-02-06T07:25:21.442Z,5.83
2023-02-06T07:27:49.326Z,5.77
2023-02-06T07:30:20.944Z,5.67
2023-02-06T07:32:48.878Z,5.60
2023-02-06T07:35:17.347Z,5.60
2023-02-06T07:37:45.241Z,5.77
2023-02-06T07:40:15.556Z,5.97
2023-02-06T07:42:43.377Z,5.60
2023-02-06T07:45:11.456Z,5.63
2023-02-06T07:47:39.255Z,5.77
2023-02-06T07:50:07.452Z,6.10
2023-02-06T07:52:35.427Z,6.23
2023-02-06T07:55:03.432Z,6.23
2023-02-06T07:57:31.358Z,6.57
2023-02-06T07:59:59.201Z,7.37
2023-02-06T08:02:27.166Z,6.57
2023-02-06T08:04:55.009Z,6.33
2023-02-06T08:07:22.890Z,6.57
2023-02-06T08:09:50.820Z,6.97
2023-02-06T08:12:18.925Z,6.50
2023-02-06T08:14:47.124Z,7.07
2023-02-06T08:17:14.974Z,6.40
2023-02-06T08:19:43.021Z,6.83
2023-02-06T08:22:10.858Z,7.30
2023-02-06T08:24:38.725Z,7.27
2023-02-06T08:27:08.292Z,6.97
2023-02-06T08:29:43.509Z,6.47
2023-02-06T08:32:19.773Z,7.17
2023-02-06T08:34:47.644Z,5.90
2023-02-06T08:37:15.526Z,6.60
2023-02-06T08:39:43.514Z,5.20
2023-02-06T08:42:11.310Z,5.93
2023-02-06T08:44:39.140Z,6.13
2023-02-06T08:47:10.431Z,5.50
2023-02-06T08:49:38.744Z,6.30
2023-02-06T08:52:07.053Z,6.20
2023-02-06T08:54:36.856Z,5.70
2023-02-06T08:57:07.750Z,5.13
2023-02-06T08:59:36.028Z,5.70
2023-02-06T09:02:03.755Z,5.27
2023-02-06T09:04:33.064Z,6.13
2023-02-06T09:07:01.017Z,5.63
2023-02-06T09:09:28.855Z,5.47
2023-02-06T09:11:58.813Z,5.77
2023-02-06T09:14:26.646Z,4.93
2023-02-06T09:16:54.521Z,5.97
2023-02-06T09:19:22.475Z,5.43
2023-02-06T09:21:50.280Z,5.13
2023-02-06T09:24:18.353Z,6.33
2023-02-06T09:26:58.904Z,5.83
2023-02-06T09:29:28.271Z,5.97
2023-02-06T09:31:57.003Z,6.37
2023-02-06T09:34:25.486Z,5.53
2023-02-06T09:36:55.773Z,5.63
2023-02-06T09:39:23.785Z,6.00
2023-02-06T09:42:01.566Z,5.30
2023-02-06T09:44:40.364Z,5.77
2023-02-06T09:47:20.350Z,5.33
2023-02-06T09:49:54.256Z,5.07
2023-02-06T09:52:47.721Z,5.17
2023-02-06T09:55:37.707Z,5.33
2023-02-06T09:58:40.882Z,5.60
2023-02-06T10:01:33.409Z,5.43
2023-02-06T10:04:20.447Z,7.93
2023-02-06T10:06:53.719Z,5.20
2023-02-06T10:09:40.938Z,5.80
2023-02-06T10:12:29.858Z,5.00
2023-02-06T10:15:03.915Z,5.33
2023-02-06T10:17:35.086Z,5.20
2023-02-06T10:20:21.322Z,4.33
2023-02-06T10:22:56.027Z,5.07
2023-02-06T10:25:30.465Z,4.93
2023-02-06T10:28:00.139Z,4.90
2023-02-06T10:31:00.066Z,4.70
2023-02-06T10:33:41.469Z,4.67
2023-02-06T10:36:09.294Z,4.53
2023-02-06T10:38:43.288Z,4.77
2023-02-06T10:41:38.671Z,4.63
2023-02-06T10:44:17.043Z,5.03
2023-02-06T10:46:52.288Z,3.93
2023-02-06T10:49:31.471Z,4.97
2023-02-06T10:52:02.114Z,4.53
2023-02-06T10:54:41.522Z,4.67
2023-02-06T10:57:18.807Z,4.80
2023-02-06T10:59:49.301Z,4.93
2023-02-06T11:02:55.307Z,5.23
2023-02-06T11:05:31.014Z,5.20
2023-02-06T11:08:38.196Z,4.70
2023-02-06T11:11:25.024Z,4.73
2023-02-06T11:14:15.558Z,4.30
2023-02-06T11:16:43.655Z,4.20
2023-02-06T11:19:28.047Z,4.43
2023-02-06T11:22:08.495Z,4.27
2023-02-06T11:24:36.685Z,3.83
2023-02-06T11:27:13.294Z,3.60
2023-02-06T11:29:50.959Z,4.57
2023-02-06T11:32:37.649Z,3.70
2023-02-06T11:35:36.985Z,4.03
2023-02-06T11:38:16.469Z,3.80
2023-02-06T11:40:44.700Z,3.77
2023-02-06T11:43:26.728Z,3.97
2023-02-06T11:46:18.548Z,3.53
2023-02-06T11:48:55.406Z,4.20
2023-02-06T11:51:24.305Z,3.53
2023-02-06T11:53:58.048Z,3.40
2023-02-06T11:56:26.086Z,4.13
2023-02-06T11:59:24.402Z,4.37
2023-02-06T12:01:52.583Z,4.40
2023-02-06T12:04:24.805Z,4.53
2023-02-06T12:07:00.601Z,3.90
2023-02-06T12:09:28.437Z,4.60
2023-02-06T12:12:06.804Z,4.40
2023-02-06T12:14:40.204Z,3.60
2023-02-06T12:17:31.918Z,3.97
2023-02-06T12:20:14.487Z,4.23
2023-02-06T12:22:57.629Z,3.83
2023-02-06T12:25:31.416Z,4.73
2023-02-06T12:28:14.140Z,4.20
2023-02-06T12:30:52.340Z,4.07
2023-02-06T12:33:23.637Z,3.97
2023-02-06T12:36:00.815Z,3.90
2023-02-06T12:39:01.400Z,4.07
2023-02-06T12:41:35.212Z,3.57
2023-02-06T12:44:24.235Z,3.70
2023-02-06T12:46:59.581Z,4.30
2023-02-06T12:49:46.306Z,3.40
2023-02-06T12:52:19.517Z,3.50
2023-02-06T12:54:51.776Z,3.90
2023-02-06T12:57:24.813Z,3.90
2023-02-06T13:00:15.622Z,4.00
2023-02-06T13:03:02.542Z,3.80
2023-02-06T13:05:39.039Z,4.57
2023-02-06T13:08:34.687Z,3.57
2023-02-06T13:11:07.571Z,3.90
2023-02-06T13:13:40.816Z,4.30
2023-02-06T13:16:09.157Z,4.53
2023-02-06T13:18:42.989Z,4.80
2023-02-06T13:21:19.657Z,4.20
2023-02-06T13:24:13.652Z,4.20
2023-02-06T13:26:44.361Z,4.23
2023-02-06T13:29:28.870Z,4.40
2023-02-06T13:32:32.138Z,3.97
2023-02-06T13:35:24.288Z,4.47
2023-02-06T13:37:52.749Z,4.10
2023-02-06T13:40:31.672Z,4.30
2023-02-06T13:43:23.131Z,4.30
2023-02-06T13:46:00.537Z,4.80
2023-02-06T13:48:46.913Z,4.53
2023-02-06T13:51:51.408Z,4.73
2023-02-06T13:54:52.491Z,4.97
2023-02-06T13:57:45.105Z,4.50
2023-02-06T14:00:31.316Z,4.50
2023-02-06T14:03:07.700Z,4.43
2023-02-06T14:06:19.048Z,4.40
2023-02-06T14:09:05.358Z,5.10
2023-02-06T14:12:16.315Z,4.37
2023-02-06T14:15:00.657Z,4.60
2023-02-06T14:18:22.132Z,4.43
2023-02-06T14:21:11.520Z,4.00
2023-02-06T14:23:57.596Z,4.07
2023-02-06T14:26:45.541Z,4.70
2023-02-06T14:29:30.126Z,3.93
2023-02-06T14:32:31.815Z,4.33
2023-02-06T14:35:27.713Z,3.77
2023-02-06T14:38:33.237Z,4.30
2023-02-06T14:41:01.116Z,4.23
2023-02-06T14:43:31.604Z,3.93
2023-02-06T14:46:07.600Z,4.10
2023-02-06T14:48:40.775Z,3.80
2023-02-06T14:51:09.291Z,3.80
2023-02-06T14:53:38.546Z,3.97
2023-02-06T14:56:09.612Z,4.20
2023-02-06T14:58:37.565Z,4.97
2023-02-06T15:01:19.169Z,3.87
2023-02-06T15:03:48.072Z,4.07
2023-02-06T15:06:25.384Z,4.17
2023-02-06T15:08:53.319Z,3.70
2023-02-06T15:11:27.094Z,3.33
2023-02-06T15:13:56.617Z,4.23
2023-02-06T15:16:24.528Z,3.77
2023-02-06T15:18:52.398Z,4.13
2023-02-06T15:21:20.703Z,3.83
2023-02-06T15:24:03.633Z,3.93
2023-02-06T15:26:59.329Z,3.73
2023-02-06T15:29:30.007Z,3.20
2023-02-06T15:32:05.013Z,3.70
2023-02-06T15:34:33.138Z,3.50
2023-02-06T15:37:01.066Z,3.30
2023-02-06T15:39:28.888Z,4.00
2023-02-06T15:41:56.820Z,3.90
2023-02-06T15:44:34.448Z,4.50
2023-02-06T15:47:03.975Z,3.60
2023-02-06T15:49:38.164Z,3.83
2023-02-06T15:52:06.489Z,4.43
2023-02-06T15:54:35.146Z,4.90
2023-02-06T15:57:10.157Z,3.73
2023-02-06T15:59:40.764Z,4.37
2023-02-06T16:02:10.261Z,4.03
2023-02-06T16:04:39.198Z,4.43
2023-02-06T16:07:13.058Z,3.90
2023-02-06T16:09:43.502Z,4.10
2023-02-06T16:12:11.408Z,4.03
2023-02-06T16:14:41.317Z,3.80
2023-02-06T16:17:15.055Z,4.40
2023-02-06T16:19:48.717Z,4.47
2023-02-06T16:22:27.000Z,4.53
2023-02-06T16:24:57.292Z,3.97
2023-02-06T16:27:26.970Z,4.20
2023-02-06T16:29:57.395Z,4.37
2023-02-06T16:32:30.058Z,4.07
2023-02-06T16:34:58.146Z,4.10
2023-02-06T16:37:27.960Z,4.13
2023-02-06T16:39:55.854Z,4.23
2023-02-06T16:42:25.851Z,4.00
2023-02-06T16:44:55.494Z,4.37
2023-02-06T16:47:23.668Z,5.00
2023-02-06T16:49:53.234Z,4.37
2023-02-06T16:52:23.670Z,5.17
2023-02-06T16:54:51.717Z,4.67
2023-02-06T16:57:32.816Z,4.40
2023-02-06T17:00:01.042Z,4.33
2023-02-06T17:02:29.187Z,3.90
2023-02-06T17:04:57.244Z,4.13
2023-02-06T17:07:26.826Z,4.87
2023-02-06T17:09:55.690Z,3.90
2023-02-06T17:12:23.675Z,4.40
2023-02-06T17:14:52.028Z,4.20
2023-02-06T17:17:21.196Z,4.47
2023-02-06T17:19:49.748Z,4.63
2023-02-06T17:22:18.061Z,4.77
2023-02-06T17:24:46.449Z,4.20
2023-02-06T17:27:16.951Z,4.80
2023-02-06T17:29:47.335Z,4.20
2023-02-06T17:32:17.691Z,3.77
2023-02-06T17:34:45.597Z,4.47
2023-02-06T17:37:21.790Z,4.23
2023-02-06T17:39:51.193Z,4.87
2023-02-06T17:42:19.273Z,4.70
2023-02-06T17:44:47.234Z,5.00
2023-02-06T17:47:15.199Z,4.87
2023-02-06T17:49:43.287Z,5.03
2023-02-06T17:52:11.421Z,4.80
2023-02-06T17:54:39.455Z,5.33
2023-02-06T17:57:07.521Z,4.83
2023-02-06T17:59:35.585Z,5.10
2023-02-06T18:02:03.630Z,5.27
2023-02-06T18:04:31.820Z,4.97
2023-02-06T18:06:59.782Z,5.40
2023-02-06T18:09:27.760Z,5.17
2023-02-06T18:11:55.742Z,5.40
2023-02-06T18:14:24.047Z,5.53
2023-02-06T18:16:52.221Z,5.83
2023-02-06T18:19:25.246Z,5.67
2023-02-06T18:21:53.452Z,6.23
2023-02-06T18:24:21.322Z,5.87
2023-02-06T18:26:49.307Z,5.40
2023-02-06T18:29:17.331Z,5.70
2023-02-06T18:31:45.400Z,5.77
2023-02-06T18:34:13.766Z,6.00
2023-02-06T18:36:42.033Z,5.90
2023-02-06T18:39:10.065Z,6.03
2023-02-06T18:41:56.934Z,6.30
2023-02-06T18:44:26.239Z,6.03
2023-02-06T18:46:54.328Z,6.33
2023-02-06T18:49:22.307Z,6.40
2023-02-06T18:51:50.390Z,6.80
2023-02-06T18:54:18.434Z,5.93
2023-02-06T18:56:48.388Z,6.33
2023-02-06T18:59:17.833Z,6.90
2023-02-06T19:01:45.871Z,6.87
2023-02-06T19:04:14.138Z,5.50
2023-02-06T19:06:44.266Z,6.20
2023-02-06T19:09:14.410Z,5.37
2023-02-06T19:11:43.352Z,6.23
2023-02-06T19:14:14.572Z,5.70
2023-02-06T19:16:45.890Z,6.23
2023-02-06T19:19:13.891Z,5.87
2023-02-06T19:21:42.278Z,5.73
2023-02-06T19:24:12.831Z,6.60
2023-02-06T19:26:41.338Z,6.27
2023-02-06T19:29:09.374Z,6.27
2023-02-06T19:31:40.471Z,6.53
2023-02-06T19:34:08.532Z,6.60
2023-02-06T19:36:36.667Z,6.07
2023-02-06T19:39:07.998Z,6.50
2023-02-06T19:41:36.254Z,6.20
2023-02-06T19:44:09.580Z,6.53
2023-02-06T19:46:38.111Z,6.23
2023-02-06T19:49:07.484Z,6.40
2023-02-06T19:51:40.676Z,6.30
2023-02-06T19:54:08.857Z,6.20
2023-02-06T19:56:42.095Z,6.43
2023-02-06T19:59:23.086Z,10.70
2023-02-06T20:01:55.780Z,7.17
2023-02-06T20:04:25.823Z,6.90
2023-02-06T20:06:53.929Z,7.23
2023-02-06T20:09:22.300Z,7.10
2023-02-06T20:11:50.607Z,7.13
2023-02-06T20:14:18.982Z,7.10
2023-02-06T20:16:47.196Z,7.40
2023-02-06T20:19:17.408Z,7.63
2023-02-06T20:21:50.591Z,7.67
2023-02-06T20:24:21.987Z,7.10
2023-02-06T20:26:54.018Z,7.23
2023-02-06T20:29:25.510Z,7.07
2023-02-06T20:31:53.584Z,6.93
2023-02-06T20:34:23.015Z,7.33
2023-02-06T20:36:51.375Z,7.17
2023-02-06T20:39:19.962Z,7.47
2023-02-06T20:41:48.240Z,7.67
2023-02-06T20:44:16.552Z,7.17
2023-02-06T20:46:44.543Z,7.90
2023-02-06T20:49:23.718Z,7.40
2023-02-06T20:51:51.790Z,6.57
2023-02-06T20:54:20.922Z,6.47
2023-02-06T20:56:49.085Z,5.87
2023-02-06T20:59:18.626Z,5.70
2023-02-06T21:01:46.722Z,5.80
2023-02-06T21:04:15.794Z,5.90
2023-02-06T21:06:44.432Z,5.17
2023-02-06T21:09:12.491Z,7.13
2023-02-06T21:11:42.912Z,6.77
2023-02-06T21:14:25.138Z,5.80
2023-02-06T21:16:53.147Z,5.10
2023-02-06T21:19:22.038Z,4.60
2023-02-06T21:21:50.621Z,4.47
2023-02-06T21:24:19.014Z,3.83
2023-02-06T21:26:47.118Z,4.53
2023-02-06T21:29:15.676Z,4.97
2023-02-06T21:31:43.991Z,3.87
2023-02-06T21:34:20.380Z,4.00
2023-02-06T21:36:48.612Z,4.20
2023-02-06T21:39:19.833Z,3.63
2023-02-06T21:41:48.389Z,4.37
2023-02-06T21:44:16.407Z,3.97
2023-02-06T21:46:44.411Z,4.30
2023-02-06T21:49:14.226Z,4.47
2023-02-06T21:51:43.771Z,4.13
2023-02-06T21:54:13.903Z,3.83
2023-02-06T21:56:42.109Z,4.20
2023-02-06T21:59:11.208Z,4.10
2023-02-06T22:01:41.784Z,4.43
2023-02-06T22:04:10.660Z,4.03
2023-02-06T22:06:38.924Z,4.10
2023-02-06T22:09:08.947Z,4.20
2023-02-06T22:11:38.388Z,4.20
2023-02-06T22:14:13.013Z,4.10
2023-02-06T22:16:41.052Z,4.33
2023-02-06T22:19:09.204Z,4.93
2023-02-06T22:21:37.283Z,4.30
2023-02-06T22:24:07.595Z,4.50
2023-02-06T22:26:40.295Z,4.97
2023-02-06T22:29:09.260Z,4.80
2023-02-06T22:31:37.694Z,4.87
2023-02-06T22:34:05.796Z,5.17
2023-02-06T22:36:34.237Z,4.90
2023-02-06T22:39:04.103Z,4.80
2023-02-06T22:41:32.077Z,4.37
2023-02-06T22:44:00.083Z,4.77
2023-02-06T22:46:31.657Z,4.87
2023-02-06T22:48:59.794Z,5.17
2023-02-06T22:51:28.044Z,4.50
2023-02-06T22:53:56.020Z,4.60
2023-02-06T22:56:30.569Z,5.17
2023-02-06T22:59:09.218Z,5.17
2023-02-06T23:01:44.979Z,4.80
2023-02-06T23:04:15.430Z,5.60
2023-02-06T23:06:43.633Z,5.17
2023-02-06T23:09:14.900Z,5.27
2023-02-06T23:11:42.740Z,4.70
2023-02-06T23:14:11.798Z,4.97
2023-02-06T23:16:39.628Z,5.20
2023-02-06T23:19:08.031Z,5.23
2023-02-06T23:21:38.357Z,5.30
2023-02-06T23:24:08.075Z,5.97
2023-02-06T23:26:35.998Z,5.63
2023-02-06T23:29:05.371Z,5.70
2023-02-06T23:31:33.588Z,5.37
2023-02-06T23:34:01.827Z,6.07
2023-02-06T23:36:29.702Z,5.90
2023-02-06T23:38:57.598Z,5.23
2023-02-06T23:41:27.243Z,5.90
2023-02-06T23:43:59.423Z,5.73
2023-02-06T23:46:27.895Z,5.93
2023-02-06T23:48:55.762Z,5.10
2023-02-06T23:51:23.802Z,5.70
2023-02-06T23:53:51.955Z,5.20
2023-02-06T23:56:22.194Z,5.53
2023-02-06T23:58:50.054Z,5.47
